Terminal Aerodrome Forecast
Issued by NWS

Home | Current Version | Previous Version | Text Only | Print | Product List | Glossary On
Versions: 1 2 3 4 5 6 7 8 9 10 11 12 13 14 15 16 17 18
000
FTUS46 KSEW 231921 AAA
TAFOLM
TAF AMD
KOLM 231921Z 2319/2418 VRB03KT P6SM FEW028 OVC040
     FM232100 27005KT P6SM FEW035 BKN050
     FM240000 31005KT P6SM SCT050
     FM240300 35004KT P6SM SKC
     FM240900 VRB03KT P6SM MIFG SKC
     FM241500 VRB03KT P6SM FEW009=

USA.gov is the U.S. government's official web portal to all federal, state and local government web resources and services.